createdAt,value
2022-08-19T00:03:38.234Z,4.72
2022-08-19T00:07:40.222Z,6.13
2022-08-19T00:11:43.624Z,5.30
2022-08-19T00:15:45.667Z,5.05
2022-08-19T00:19:47.348Z,5.47
2022-08-19T00:23:48.985Z,5.03
2022-08-19T00:27:50.787Z,4.88
2022-08-19T00:31:57.527Z,5.32
2022-08-19T00:36:00.677Z,4.82
2022-08-19T00:40:03.750Z,5.70
2022-08-19T00:44:09.682Z,5.15
2022-08-19T00:48:15.100Z,5.30
2022-08-19T00:52:21.997Z,5.28
2022-08-19T00:56:24.637Z,5.53
2022-08-19T01:00:28.693Z,4.65
2022-08-19T01:04:30.369Z,6.30
2022-08-19T01:08:32.050Z,6.13
2022-08-19T01:12:34.062Z,6.00
2022-08-19T01:16:38.115Z,6.75
2022-08-19T01:20:40.635Z,6.85
2022-08-19T01:24:47.421Z,6.13
2022-08-19T01:28:56.132Z,6.72
2022-08-19T01:33:02.475Z,6.95
2022-08-19T01:37:09.514Z,7.65
2022-08-19T01:41:12.858Z,7.43
2022-08-19T01:45:14.805Z,7.63
2022-08-19T01:49:19.453Z,7.60
2022-08-19T01:53:21.086Z,7.32
2022-08-19T01:57:24.667Z,8.40
2022-08-19T02:01:26.429Z,7.47
2022-08-19T02:05:33.541Z,7.40
2022-08-19T02:09:35.467Z,6.90
2022-08-19T02:13:37.858Z,8.05
2022-08-19T02:17:40.457Z,7.80
2022-08-19T02:21:42.279Z,8.25
2022-08-19T02:25:46.747Z,8.25
2022-08-19T02:29:50.749Z,7.60
2022-08-19T02:33:53.396Z,8.40
2022-08-19T02:38:16.926Z,8.57
2022-08-19T02:42:18.634Z,10.20
2022-08-19T02:46:27.920Z,9.77
2022-08-19T02:50:30.011Z,10.23
2022-08-19T02:54:31.725Z,10.27
2022-08-19T02:58:33.411Z,10.23
2022-08-19T03:02:35.052Z,10.45
2022-08-19T03:06:42.464Z,10.40
2022-08-19T03:10:47.305Z,10.90
2022-08-19T03:14:49.118Z,11.80
2022-08-19T03:18:52.100Z,11.07
2022-08-19T03:22:53.787Z,11.27
2022-08-19T03:26:59.629Z,12.20
2022-08-19T03:31:45.039Z,12.50
2022-08-19T03:35:37.571Z,13.20
2022-08-19T03:39:41.241Z,12.73
2022-08-19T03:43:43.959Z,12.75
2022-08-19T03:47:46.296Z,13.40
2022-08-19T03:51:49.406Z,12.75
2022-08-19T03:55:50.982Z,15.18
2022-08-19T03:59:52.566Z,13.65
2022-08-19T04:03:54.970Z,13.95
2022-08-19T04:08:00.222Z,15.05
2022-08-19T04:12:02.120Z,15.05
2022-08-19T04:16:05.134Z,14.90
2022-08-19T04:20:07.283Z,15.10
2022-08-19T04:24:13.486Z,15.73
2022-08-19T04:28:15.176Z,14.75
2022-08-19T04:32:16.874Z,16.33
2022-08-19T04:36:28.603Z,17.75
2022-08-19T04:40:48.783Z,17.63
2022-08-19T04:44:51.761Z,17.65
2022-08-19T04:48:54.422Z,17.40
2022-08-19T04:52:56.725Z,18.95
2022-08-19T04:56:58.907Z,19.17
2022-08-19T05:01:03.451Z,19.67
2022-08-19T05:05:07.338Z,19.15
2022-08-19T05:09:08.935Z,21.13
2022-08-19T05:13:11.823Z,19.13
2022-08-19T05:17:34.601Z,21.92
2022-08-19T05:21:55.246Z,22.75
2022-08-19T05:25:56.922Z,20.83
2022-08-19T05:29:58.602Z,21.70
2022-08-19T05:34:00.603Z,21.77
2022-08-19T05:38:02.280Z,21.45
2022-08-19T05:42:10.236Z,21.92
2022-08-19T05:50:29.364Z,21.60
2022-08-19T05:54:31.966Z,20.45
2022-08-19T05:58:34.659Z,22.48
2022-08-19T06:02:36.430Z,21.35
2022-08-19T06:06:38.300Z,21.75
2022-08-19T06:10:39.964Z,20.13
2022-08-19T06:14:42.504Z,20.38
2022-08-19T06:18:45.130Z,21.75
2022-08-19T06:22:50.119Z,20.48
2022-08-19T06:26:57.968Z,20.42
2022-08-19T06:31:07.503Z,21.48
2022-08-19T06:35:09.364Z,19.08
2022-08-19T06:39:18.281Z,18.35
2022-08-19T06:43:19.914Z,17.13
2022-08-19T06:47:24.008Z,17.67
2022-08-19T06:55:41.320Z,19.00
2022-08-19T06:59:42.965Z,18.67
2022-08-19T07:03:44.549Z,17.05
2022-08-19T07:07:46.186Z,18.27
2022-08-19T07:11:52.018Z,17.50
2022-08-19T07:15:53.645Z,17.60
2022-08-19T07:19:56.243Z,17.90
2022-08-19T07:24:01.880Z,16.83
2022-08-19T07:32:07.443Z,15.05
2022-08-19T07:36:16.406Z,17.75
2022-08-19T07:40:18.160Z,15.52
2022-08-19T07:44:21.572Z,17.40
2022-08-19T07:48:26.303Z,18.00
2022-08-19T07:52:27.998Z,17.10
2022-08-19T07:56:29.663Z,15.75
2022-08-19T08:00:31.595Z,14.98
2022-08-19T08:04:51.791Z,16.50
2022-08-19T08:09:12.055Z,14.57
2022-08-19T08:13:13.787Z,14.60
2022-08-19T08:17:18.021Z,14.55
2022-08-19T08:25:46.166Z,13.10
2022-08-19T08:29:51.250Z,13.05
2022-08-19T08:33:52.886Z,11.55
2022-08-19T08:37:56.844Z,12.40
2022-08-19T08:42:18.733Z,13.50
2022-08-19T08:46:30.850Z,11.98
2022-08-19T08:50:41.108Z,12.10
2022-08-19T08:54:54.918Z,12.57
2022-08-19T08:59:11.121Z,12.75
2022-08-19T09:03:24.062Z,12.95
2022-08-19T09:07:35.179Z,13.25
2022-08-19T09:11:51.099Z,12.30
2022-08-19T09:16:02.406Z,11.88
2022-08-19T09:20:11.292Z,12.07
2022-08-19T09:24:13.331Z,10.50
2022-08-19T09:28:22.095Z,11.15
2022-08-19T09:32:27.090Z,10.40
2022-08-19T09:36:35.392Z,8.82
2022-08-19T09:40:38.545Z,8.95
2022-08-19T09:44:41.666Z,8.90
2022-08-19T09:48:43.509Z,8.90
2022-08-19T09:52:55.196Z,9.13
2022-08-19T09:57:03.774Z,8.60
2022-08-19T10:01:09.366Z,8.70
2022-08-19T10:05:29.471Z,5.03
2022-08-19T10:09:34.409Z,5.07
2022-08-19T10:13:37.633Z,4.38
2022-08-19T10:17:39.371Z,4.78
2022-08-19T10:21:41.312Z,4.80
2022-08-19T10:25:43.735Z,4.60
2022-08-19T10:29:46.385Z,4.63
2022-08-19T10:33:54.145Z,4.65
2022-08-19T10:38:02.107Z,4.00
2022-08-19T10:42:07.938Z,4.47
2022-08-19T10:46:14.238Z,4.28
2022-08-19T10:50:36.644Z,3.55
2022-08-19T10:54:58.512Z,4.22
2022-08-19T10:59:07.366Z,3.40
2022-08-19T11:03:09.620Z,4.03
2022-08-19T11:07:12.819Z,4.75
2022-08-19T11:11:14.645Z,4.30
2022-08-19T11:15:16.738Z,3.58
2022-08-19T11:19:20.078Z,3.63
2022-08-19T11:23:21.842Z,2.35
2022-08-19T11:27:23.518Z,2.53
2022-08-19T11:31:29.075Z,2.38
2022-08-19T11:35:31.012Z,2.17
2022-08-19T11:39:35.131Z,3.25
2022-08-19T11:43:38.153Z,2.30
2022-08-19T11:47:40.125Z,2.58
2022-08-19T11:51:44.091Z,2.05
2022-08-19T11:55:46.564Z,1.58
2022-08-19T11:59:53.544Z,2.03
2022-08-19T12:03:56.786Z,1.45
2022-08-19T12:07:58.574Z,1.77
2022-08-19T12:12:00.407Z,1.75
2022-08-19T12:16:13.081Z,1.67
2022-08-19T12:20:16.620Z,1.92
2022-08-19T12:24:23.983Z,1.83
2022-08-19T12:28:26.195Z,1.95
2022-08-19T12:32:27.867Z,1.88
2022-08-19T12:36:30.357Z,1.90
2022-08-19T12:40:31.967Z,1.80
2022-08-19T12:44:33.858Z,2.55
2022-08-19T12:48:36.370Z,1.75
2022-08-19T12:52:43.193Z,1.70
2022-08-19T12:56:44.878Z,2.17
2022-08-19T13:00:46.624Z,1.60
2022-08-19T13:04:48.269Z,2.22
2022-08-19T13:08:50.026Z,1.52
2022-08-19T13:12:52.962Z,2.05
2022-08-19T13:16:54.599Z,1.60
2022-08-19T13:20:57.419Z,1.85
2022-08-19T13:24:59.037Z,1.98
2022-08-19T13:29:19.041Z,1.73
2022-08-19T13:33:20.783Z,2.08
2022-08-19T13:37:41.984Z,1.83
2022-08-19T13:41:50.859Z,2.00
2022-08-19T13:45:56.352Z,2.05
2022-08-19T13:49:58.018Z,2.05
2022-08-19T13:53:59.725Z,2.20
2022-08-19T13:58:02.831Z,1.75
2022-08-19T14:02:06.434Z,2.15
2022-08-19T14:06:08.118Z,1.70
2022-08-19T14:10:13.985Z,1.80
2022-08-19T14:14:16.530Z,1.77
2022-08-19T14:18:19.460Z,1.70
2022-08-19T14:22:22.158Z,1.77
2022-08-19T14:26:24.893Z,1.98
2022-08-19T14:30:30.049Z,1.95
2022-08-19T14:34:32.551Z,2.60
2022-08-19T14:38:34.593Z,1.85
2022-08-19T14:42:36.346Z,2.10
2022-08-19T14:46:37.984Z,1.67
2022-08-19T14:50:39.946Z,1.45
2022-08-19T14:54:41.590Z,1.35
2022-08-19T14:58:44.532Z,2.42
2022-08-19T15:02:46.198Z,1.85
2022-08-19T15:06:47.825Z,2.42
2022-08-19T15:10:49.746Z,1.70
2022-08-19T15:14:54.598Z,2.40
2022-08-19T15:19:00.713Z,1.95
2022-08-19T15:23:02.379Z,2.00
2022-08-19T15:27:04.048Z,2.20
2022-08-19T15:31:05.941Z,2.60
2022-08-19T15:35:08.040Z,2.08
2022-08-19T15:39:10.373Z,2.75
2022-08-19T15:43:12.018Z,2.25
2022-08-19T15:47:14.739Z,2.28
2022-08-19T15:51:16.963Z,1.40
2022-08-19T15:55:33.581Z,1.75
2022-08-19T15:59:56.666Z,1.05
2022-08-19T16:04:20.605Z,1.52
2022-08-19T16:08:22.235Z,3.80
2022-08-19T16:12:27.499Z,2.00
2022-08-19T16:16:34.062Z,2.53
2022-08-19T16:20:36.425Z,2.67
2022-08-19T16:24:38.715Z,2.55
2022-08-19T16:28:41.248Z,2.33
2022-08-19T16:32:44.467Z,2.03
2022-08-19T16:36:46.110Z,1.30
2022-08-19T16:40:49.159Z,1.33
2022-08-19T16:44:50.824Z,1.02
2022-08-19T16:48:52.536Z,0.85
2022-08-19T16:52:54.315Z,0.80
2022-08-19T16:56:56.101Z,0.85
2022-08-19T17:01:03.409Z,0.93
2022-08-19T17:05:10.044Z,0.98
2022-08-19T17:09:11.769Z,0.95
2022-08-19T17:13:16.801Z,0.70
2022-08-19T17:17:18.411Z,1.27
2022-08-19T17:21:22.490Z,1.25
2022-08-19T17:25:29.323Z,1.35
2022-08-19T17:29:33.980Z,1.60
2022-08-19T17:33:35.604Z,1.38
2022-08-19T17:37:43.185Z,1.73
2022-08-19T17:41:44.779Z,2.13
2022-08-19T17:45:46.690Z,3.17
2022-08-19T17:49:48.553Z,2.20
2022-08-19T17:53:52.737Z,2.25
2022-08-19T17:57:54.908Z,2.90
2022-08-19T18:01:56.693Z,2.70
2022-08-19T18:05:58.604Z,2.55
2022-08-19T18:10:01.842Z,2.78
2022-08-19T18:14:03.752Z,3.00
2022-08-19T18:18:15.509Z,2.85
2022-08-19T18:22:30.729Z,2.80
2022-08-19T18:26:32.306Z,2.80
2022-08-19T18:30:34.316Z,2.63
2022-08-19T18:34:36.792Z,3.42
2022-08-19T18:38:57.173Z,3.50
2022-08-19T18:43:22.942Z,3.78
2022-08-19T18:47:42.698Z,3.13
2022-08-19T18:51:44.477Z,2.70
2022-08-19T18:55:49.450Z,2.97
2022-08-19T18:59:51.929Z,3.72
2022-08-19T19:03:54.998Z,3.00
2022-08-19T19:07:56.680Z,2.90
2022-08-19T19:12:01.230Z,2.72
2022-08-19T19:16:03.045Z,2.60
2022-08-19T19:20:05.639Z,2.42
2022-08-19T19:24:08.965Z,2.70
2022-08-19T19:28:10.660Z,2.75
2022-08-19T19:32:19.282Z,2.85
2022-08-19T19:36:21.091Z,3.20
2022-08-19T19:40:23.845Z,3.20
2022-08-19T19:44:32.485Z,2.80
2022-08-19T19:48:35.497Z,3.22
2022-08-19T19:52:38.193Z,2.88
2022-08-19T19:56:48.616Z,3.05
2022-08-19T20:00:50.272Z,2.88
2022-08-19T20:04:52.522Z,3.05
2022-08-19T20:09:10.637Z,7.43
2022-08-19T20:17:17.057Z,3.40
2022-08-19T20:21:18.789Z,2.83
2022-08-19T20:25:22.313Z,2.80
2022-08-19T20:29:38.440Z,2.15
2022-08-19T20:33:41.959Z,2.72
2022-08-19T20:37:43.572Z,2.67
2022-08-19T20:41:45.190Z,2.65
2022-08-19T20:45:46.979Z,2.28
2022-08-19T20:49:48.605Z,2.25
2022-08-19T20:53:50.309Z,2.45
2022-08-19T20:57:52.011Z,2.97
2022-08-19T21:01:54.587Z,2.40
2022-08-19T21:05:57.043Z,2.20
2022-08-19T21:09:58.673Z,1.85
2022-08-19T21:14:00.796Z,2.17
2022-08-19T21:18:02.521Z,2.47
2022-08-19T21:22:05.293Z,2.17
2022-08-19T21:26:08.363Z,2.65
2022-08-19T21:30:10.877Z,2.00
2022-08-19T21:34:12.619Z,2.95
2022-08-19T21:38:14.423Z,2.65
2022-08-19T21:42:16.673Z,3.00
2022-08-19T21:46:18.337Z,3.17
2022-08-19T21:50:20.139Z,3.05
2022-08-19T21:54:21.798Z,3.47
2022-08-19T21:58:28.380Z,2.83
2022-08-19T22:02:31.834Z,2.72
2022-08-19T22:06:33.387Z,2.88
2022-08-19T22:10:37.692Z,2.45
2022-08-19T22:14:39.646Z,3.40
2022-08-19T22:18:41.458Z,3.60
2022-08-19T22:22:52.894Z,2.78
2022-08-19T22:26:54.572Z,3.10
2022-08-19T22:30:56.277Z,2.95
2022-08-19T22:34:59.330Z,3.38
2022-08-19T22:39:00.928Z,3.17
2022-08-19T22:43:15.160Z,3.33
2022-08-19T22:47:18.075Z,3.22
2022-08-19T22:51:38.346Z,4.18
2022-08-19T22:55:39.962Z,4.07
2022-08-19T22:59:41.981Z,3.97
2022-08-19T23:03:44.943Z,3.85
2022-08-19T23:07:52.066Z,4.13
2022-08-19T23:11:54.524Z,4.22
2022-08-19T23:15:56.122Z,3.60
2022-08-19T23:20:02.274Z,3.85
2022-08-19T23:24:04.624Z,4.00
2022-08-19T23:28:25.863Z,4.00
2022-08-19T23:32:27.456Z,4.63
2022-08-19T23:36:29.188Z,3.85
2022-08-19T23:40:30.819Z,4.10
2022-08-19T23:44:32.498Z,4.55
2022-08-19T23:48:36.251Z,4.90
2022-08-19T23:52:49.929Z,4.72
2022-08-19T23:56:51.946Z,5.57
